N124TL KPWM-KBHB
Flight info
| Callsign | N124TL |
|---|---|
| Flight time | 0h 40m |
| Altitude | 3500 |
| Route | VFR NORTH EAST |
| Aircraft | BE58/L-VGD/C |
Departure
| Time | 2026-04-25 18:30 |
|---|---|
| Airport | Portland International Jetport (KPWM) |
Arrival
| Time | 2026-04-25 19:11 |
|---|---|
| Airport | Hancock County-Bar Harbor Airport (KBHB) |
| Time | Latitude | Longitude | Altitude | Speed | Heading |
|---|---|---|---|---|---|
| 2026-04-25 18:21 | 43.65041 | -70.30814 | 52 ft | 0 kts | 178° |
| 2026-04-25 18:29 | 43.65035 | -70.30754 | 50 ft | 16 kts | 50° |
| 2026-04-25 18:29 | 43.65161 | -70.30718 | 50 ft | 15 kts | 40° |
| 2026-04-25 18:30 | 43.64772 | -70.30455 | 77 ft | 91 kts | 165° |
| 2026-04-25 18:30 | 43.64048 | -70.30191 | 327 ft | 119 kts | 166° |
| 2026-04-25 18:30 | 43.63194 | -70.29884 | 661 ft | 134 kts | 158° |
| 2026-04-25 18:30 | 43.62520 | -70.28971 | 965 ft | 147 kts | 115° |
| 2026-04-25 18:31 | 43.62431 | -70.27492 | 868 ft | 160 kts | 81° |
| 2026-04-25 18:31 | 43.62659 | -70.25973 | 854 ft | 161 kts | 77° |
| 2026-04-25 18:31 | 43.62899 | -70.24474 | 1122 ft | 164 kts | 76° |
| 2026-04-25 18:31 | 43.63495 | -70.23165 | 1426 ft | 165 kts | 41° |
| 2026-04-25 18:32 | 43.64309 | -70.22053 | 1762 ft | 165 kts | 45° |
| 2026-04-25 18:32 | 43.65118 | -70.20895 | 2105 ft | 165 kts | 45° |
| 2026-04-25 18:32 | 43.65882 | -70.19801 | 2619 ft | 155 kts | 45° |
| 2026-04-25 18:32 | 43.66608 | -70.18743 | 3099 ft | 150 kts | 45° |
| 2026-04-25 18:33 | 43.67319 | -70.17694 | 3369 ft | 155 kts | 45° |
| 2026-04-25 18:33 | 43.68086 | -70.16557 | 3283 ft | 163 kts | 45° |
| 2026-04-25 18:33 | 43.68861 | -70.15402 | 3272 ft | 164 kts | 45° |
| 2026-04-25 18:33 | 43.69559 | -70.14146 | 3267 ft | 167 kts | 65° |
| 2026-04-25 18:34 | 43.69802 | -70.12569 | 3267 ft | 169 kts | 81° |
| 2026-04-25 18:34 | 43.69910 | -70.10962 | 3265 ft | 170 kts | 82° |
| 2026-04-25 18:34 | 43.70016 | -70.09332 | 3270 ft | 170 kts | 82° |
| 2026-04-25 18:34 | 43.70118 | -70.07678 | 3271 ft | 170 kts | 82° |
| 2026-04-25 18:35 | 43.70216 | -70.06051 | 3271 ft | 170 kts | 82° |
| 2026-04-25 18:35 | 43.70313 | -70.04429 | 3270 ft | 170 kts | 82° |
| 2026-04-25 18:35 | 43.70414 | -70.02789 | 3272 ft | 170 kts | 82° |
| 2026-04-25 18:35 | 43.70511 | -70.01157 | 3273 ft | 171 kts | 82° |
| 2026-04-25 18:36 | 43.70607 | -69.99506 | 3267 ft | 171 kts | 82° |
| 2026-04-25 18:36 | 43.70701 | -69.97882 | 3264 ft | 170 kts | 82° |
| 2026-04-25 18:36 | 43.70792 | -69.96248 | 3267 ft | 170 kts | 82° |
| 2026-04-25 18:36 | 43.70887 | -69.94625 | 3267 ft | 170 kts | 82° |
| 2026-04-25 18:37 | 43.70996 | -69.93010 | 3262 ft | 168 kts | 75° |
| 2026-04-25 18:37 | 43.71406 | -69.91496 | 3272 ft | 167 kts | 70° |
| 2026-04-25 18:37 | 43.71734 | -69.89962 | 3269 ft | 168 kts | 71° |
| 2026-04-25 18:37 | 43.72063 | -69.88393 | 3265 ft | 169 kts | 71° |
| 2026-04-25 18:38 | 43.72386 | -69.86836 | 3263 ft | 169 kts | 71° |
| 2026-04-25 18:38 | 43.72714 | -69.85265 | 3265 ft | 170 kts | 71° |
| 2026-04-25 18:38 | 43.73025 | -69.83725 | 3262 ft | 164 kts | 71° |
| 2026-04-25 18:38 | 43.73340 | -69.82189 | 3257 ft | 163 kts | 71° |
| 2026-04-25 18:39 | 43.73648 | -69.80692 | 3261 ft | 162 kts | 71° |
| 2026-04-25 18:39 | 43.73953 | -69.79204 | 3268 ft | 161 kts | 71° |
| 2026-04-25 18:39 | 43.74268 | -69.77702 | 3266 ft | 160 kts | 68° |
| 2026-04-25 18:39 | 43.74705 | -69.76311 | 3268 ft | 158 kts | 58° |
| 2026-04-25 18:40 | 43.75241 | -69.74972 | 3261 ft | 157 kts | 58° |
| 2026-04-25 18:40 | 43.75774 | -69.73656 | 3263 ft | 157 kts | 58° |
| 2026-04-25 18:40 | 43.76310 | -69.72340 | 3260 ft | 157 kts | 58° |
| 2026-04-25 18:40 | 43.76850 | -69.71011 | 3265 ft | 157 kts | 58° |
| 2026-04-25 18:41 | 43.77382 | -69.69693 | 3261 ft | 157 kts | 57° |
| 2026-04-25 18:41 | 43.77916 | -69.68355 | 3256 ft | 157 kts | 58° |
| 2026-04-25 18:41 | 43.78446 | -69.67016 | 3264 ft | 158 kts | 58° |
| 2026-04-25 18:41 | 43.78976 | -69.65683 | 3258 ft | 159 kts | 58° |
| 2026-04-25 18:42 | 43.79514 | -69.64342 | 3252 ft | 159 kts | 58° |
| 2026-04-25 18:42 | 43.79868 | -69.63452 | 3263 ft | 159 kts | 58° |
| 2026-04-25 18:42 | 43.80584 | -69.61645 | 3257 ft | 159 kts | 58° |
| 2026-04-25 18:42 | 43.81114 | -69.60312 | 3250 ft | 157 kts | 58° |
| 2026-04-25 18:43 | 43.81642 | -69.58991 | 3265 ft | 157 kts | 58° |
| 2026-04-25 18:43 | 43.82178 | -69.57647 | 3261 ft | 158 kts | 57° |
| 2026-04-25 18:43 | 43.82710 | -69.56314 | 3254 ft | 158 kts | 57° |
| 2026-04-25 18:43 | 43.83240 | -69.54988 | 3254 ft | 158 kts | 58° |
| 2026-04-25 18:44 | 43.83775 | -69.53652 | 3254 ft | 158 kts | 58° |
| 2026-04-25 18:44 | 43.84309 | -69.52319 | 3250 ft | 158 kts | 57° |
| 2026-04-25 18:44 | 43.84839 | -69.50986 | 3255 ft | 158 kts | 58° |
| 2026-04-25 18:44 | 43.85374 | -69.49635 | 3255 ft | 158 kts | 57° |
| 2026-04-25 18:45 | 43.85902 | -69.48299 | 3253 ft | 158 kts | 57° |
| 2026-04-25 18:45 | 43.86429 | -69.46969 | 3255 ft | 158 kts | 58° |
| 2026-04-25 18:45 | 43.86960 | -69.45624 | 3254 ft | 159 kts | 57° |
| 2026-04-25 18:45 | 43.87495 | -69.44263 | 3252 ft | 159 kts | 57° |
| 2026-04-25 18:46 | 43.88024 | -69.42920 | 3246 ft | 159 kts | 57° |
| 2026-04-25 18:46 | 43.88510 | -69.41550 | 3243 ft | 162 kts | 71° |
| 2026-04-25 18:46 | 43.88622 | -69.39969 | 3246 ft | 164 kts | 83° |
| 2026-04-25 18:46 | 43.88666 | -69.38381 | 3243 ft | 164 kts | 83° |
| 2026-04-25 18:47 | 43.88710 | -69.36817 | 3244 ft | 163 kts | 83° |
| 2026-04-25 18:47 | 43.88761 | -69.35245 | 3244 ft | 163 kts | 83° |
| 2026-04-25 18:47 | 43.88810 | -69.33662 | 3248 ft | 163 kts | 84° |
| 2026-04-25 18:47 | 43.88864 | -69.32087 | 3255 ft | 163 kts | 84° |
| 2026-04-25 18:48 | 43.88911 | -69.30497 | 3256 ft | 164 kts | 84° |
| 2026-04-25 18:48 | 43.88955 | -69.28921 | 3257 ft | 164 kts | 84° |
| 2026-04-25 18:48 | 43.88993 | -69.27348 | 3251 ft | 164 kts | 84° |
| 2026-04-25 18:48 | 43.89033 | -69.25754 | 3256 ft | 164 kts | 84° |
| 2026-04-25 18:49 | 43.89070 | -69.24174 | 3257 ft | 164 kts | 84° |
| 2026-04-25 18:49 | 43.89110 | -69.22585 | 3250 ft | 164 kts | 84° |
| 2026-04-25 18:49 | 43.89149 | -69.20979 | 3252 ft | 164 kts | 83° |
| 2026-04-25 18:49 | 43.89564 | -69.19589 | 3259 ft | 156 kts | 48° |
| 2026-04-25 18:50 | 43.90279 | -69.18473 | 3259 ft | 156 kts | 44° |
| 2026-04-25 18:50 | 43.91018 | -69.17368 | 3259 ft | 156 kts | 44° |
| 2026-04-25 18:50 | 43.91769 | -69.16248 | 3258 ft | 157 kts | 44° |
| 2026-04-25 18:50 | 43.92508 | -69.15149 | 3254 ft | 157 kts | 44° |
| 2026-04-25 18:51 | 43.93260 | -69.14030 | 3258 ft | 157 kts | 44° |
| 2026-04-25 18:51 | 43.93756 | -69.13292 | 3253 ft | 157 kts | 44° |
| 2026-04-25 18:51 | 43.94742 | -69.11825 | 3259 ft | 156 kts | 43° |
| 2026-04-25 18:51 | 43.95487 | -69.10717 | 3258 ft | 156 kts | 43° |
| 2026-04-25 18:52 | 43.96226 | -69.09618 | 3252 ft | 156 kts | 43° |
| 2026-04-25 18:52 | 43.96971 | -69.08510 | 3258 ft | 155 kts | 43° |
| 2026-04-25 18:52 | 43.97709 | -69.07410 | 3260 ft | 155 kts | 43° |
| 2026-04-25 18:52 | 43.98453 | -69.06303 | 3254 ft | 156 kts | 43° |
| 2026-04-25 18:53 | 43.99192 | -69.05203 | 3258 ft | 156 kts | 44° |
| 2026-04-25 18:53 | 43.99942 | -69.04085 | 3261 ft | 157 kts | 44° |
| 2026-04-25 18:53 | 44.00683 | -69.02980 | 3259 ft | 157 kts | 44° |
| 2026-04-25 18:53 | 44.01434 | -69.01860 | 3258 ft | 156 kts | 44° |
| 2026-04-25 18:54 | 44.02922 | -68.99640 | 3254 ft | 156 kts | 44° |
| 2026-04-25 18:54 | 44.03659 | -68.98540 | 3256 ft | 156 kts | 44° |
| 2026-04-25 18:54 | 44.04404 | -68.97426 | 3256 ft | 156 kts | 43° |
| 2026-04-25 18:55 | 44.05137 | -68.96330 | 3254 ft | 156 kts | 43° |
| 2026-04-25 18:55 | 44.05882 | -68.95217 | 3256 ft | 156 kts | 43° |
| 2026-04-25 18:55 | 44.06621 | -68.94112 | 3257 ft | 156 kts | 43° |
| 2026-04-25 18:55 | 44.07363 | -68.93004 | 3256 ft | 157 kts | 44° |
| 2026-04-25 18:56 | 44.08107 | -68.91889 | 3253 ft | 157 kts | 43° |
| 2026-04-25 18:56 | 44.08852 | -68.90774 | 3250 ft | 157 kts | 44° |
| 2026-04-25 18:56 | 44.09602 | -68.89651 | 3253 ft | 157 kts | 43° |
| 2026-04-25 18:56 | 44.10356 | -68.88521 | 3253 ft | 157 kts | 44° |
| 2026-04-25 18:57 | 44.11081 | -68.87434 | 3252 ft | 157 kts | 43° |
| 2026-04-25 18:57 | 44.11824 | -68.86318 | 3249 ft | 157 kts | 43° |
| 2026-04-25 18:57 | 44.12574 | -68.85191 | 3256 ft | 156 kts | 43° |
| 2026-04-25 18:57 | 44.13066 | -68.84454 | 3255 ft | 156 kts | 43° |
| 2026-04-25 18:58 | 44.14049 | -68.82976 | 3252 ft | 156 kts | 43° |
| 2026-04-25 18:58 | 44.15528 | -68.80755 | 3248 ft | 156 kts | 43° |
| 2026-04-25 18:58 | 44.16264 | -68.79648 | 3250 ft | 156 kts | 43° |
| 2026-04-25 18:59 | 44.17744 | -68.77422 | 3243 ft | 156 kts | 43° |
| 2026-04-25 18:59 | 44.19228 | -68.75188 | 3245 ft | 156 kts | 43° |
| 2026-04-25 19:00 | 44.20697 | -68.72975 | 3244 ft | 156 kts | 43° |
| 2026-04-25 19:00 | 44.21441 | -68.71854 | 3245 ft | 155 kts | 43° |
| 2026-04-25 19:01 | 44.22910 | -68.69638 | 3247 ft | 155 kts | 43° |
| 2026-04-25 19:01 | 44.23642 | -68.68535 | 3031 ft | 156 kts | 43° |
| 2026-04-25 19:01 | 44.24381 | -68.67420 | 2749 ft | 155 kts | 43° |
| 2026-04-25 19:01 | 44.25116 | -68.66309 | 2467 ft | 155 kts | 43° |
| 2026-04-25 19:02 | 44.26575 | -68.64105 | 1918 ft | 155 kts | 44° |
| 2026-04-25 19:02 | 44.27304 | -68.63004 | 1641 ft | 155 kts | 44° |
| 2026-04-25 19:02 | 44.28039 | -68.61892 | 1363 ft | 156 kts | 44° |
| 2026-04-25 19:03 | 44.29265 | -68.60035 | 1276 ft | 157 kts | 44° |
| 2026-04-25 19:03 | 44.30271 | -68.58509 | 1281 ft | 159 kts | 44° |
| 2026-04-25 19:03 | 44.31023 | -68.57372 | 1279 ft | 161 kts | 44° |
| 2026-04-25 19:04 | 44.32551 | -68.55058 | 1287 ft | 162 kts | 44° |
| 2026-04-25 19:04 | 44.33318 | -68.53895 | 1295 ft | 162 kts | 44° |
| 2026-04-25 19:05 | 44.34841 | -68.51578 | 1293 ft | 161 kts | 44° |
| 2026-04-25 19:05 | 44.36357 | -68.49274 | 1296 ft | 160 kts | 44° |
| 2026-04-25 19:05 | 44.37103 | -68.48142 | 1299 ft | 160 kts | 44° |
| 2026-04-25 19:06 | 44.37860 | -68.46991 | 1298 ft | 160 kts | 44° |
| 2026-04-25 19:06 | 44.39369 | -68.44696 | 1300 ft | 160 kts | 44° |
| 2026-04-25 19:06 | 44.40128 | -68.43539 | 1297 ft | 161 kts | 44° |
| 2026-04-25 19:07 | 44.41638 | -68.41238 | 1290 ft | 160 kts | 43° |
| 2026-04-25 19:07 | 44.42587 | -68.40465 | 1036 ft | 165 kts | 13° |
| 2026-04-25 19:08 | 44.44249 | -68.38605 | 1056 ft | 161 kts | 55° |
| 2026-04-25 19:08 | 44.44592 | -68.37090 | 974 ft | 166 kts | 82° |
| 2026-04-25 19:09 | 44.45561 | -68.33570 | 963 ft | 139 kts | 30° |
| 2026-04-25 19:09 | 44.46113 | -68.33061 | 887 ft | 141 kts | 31° |
| 2026-04-25 19:09 | 44.47540 | -68.33843 | 695 ft | 92 kts | 291° |
| 2026-04-25 19:10 | 44.47432 | -68.34666 | 618 ft | 100 kts | 238° |
| 2026-04-25 19:10 | 44.46795 | -68.35223 | 412 ft | 114 kts | 206° |
| 2026-04-25 19:10 | 44.46109 | -68.35624 | 220 ft | 101 kts | 210° |
| 2026-04-25 19:10 | 44.45501 | -68.36014 | 80 ft | 85 kts | 210° |
| 2026-04-25 19:11 | 44.45070 | -68.36294 | 78 ft | 55 kts | 204° |
| 2026-04-25 19:11 | 44.44793 | -68.36468 | 77 ft | 26 kts | 203° |
| 2026-04-25 19:11 | 44.44679 | -68.36423 | 75 ft | 12 kts | 90° |
| 2026-04-25 19:11 | 44.44681 | -68.36303 | 75 ft | 22 kts | 87° |
| 2026-04-25 19:12 | 44.44667 | -68.36162 | 73 ft | 0 kts | 89° |